sensor_id;sensor_type;location;lat;lon;timestamp;pressure;altitude;pressure_sealevel;temperature;humidity
67842;BME280;54642;59.126;37.876;2023-03-31T00:00:58;99559.78;;;1.26;70.41
67842;BME280;54642;59.126;37.876;2023-03-31T00:03:25;99545.44;;;1.31;70.52
67842;BME280;54642;59.126;37.876;2023-03-31T00:05:56;99551.59;;;1.40;70.28
67842;BME280;54642;59.126;37.876;2023-03-31T00:08:23;99522.50;;;1.33;70.07
67842;BME280;54642;59.126;37.876;2023-03-31T00:10:49;99482.78;;;1.08;69.83
67842;BME280;54642;59.126;37.876;2023-03-31T00:13:15;99553.22;;;1.38;69.58
67842;BME280;54642;59.126;37.876;2023-03-31T00:15:41;99516.81;;;1.08;69.59
67842;BME280;54642;59.126;37.876;2023-03-31T00:18:07;99537.75;;;1.30;69.88
67842;BME280;54642;59.126;37.876;2023-03-31T00:20:33;99549.91;;;1.40;70.13
67842;BME280;54642;59.126;37.876;2023-03-31T00:23:03;99553.53;;;1.50;70.30
67842;BME280;54642;59.126;37.876;2023-03-31T00:25:38;99550.28;;;1.57;70.09
67842;BME280;54642;59.126;37.876;2023-03-31T00:28:05;99524.38;;;1.40;70.25
67842;BME280;54642;59.126;37.876;2023-03-31T00:30:31;99544.19;;;1.50;70.32
67842;BME280;54642;59.126;37.876;2023-03-31T00:32:59;99491.63;;;1.22;70.25
67842;BME280;54642;59.126;37.876;2023-03-31T00:35:24;99549.31;;;1.50;69.89
67842;BME280;54642;59.126;37.876;2023-03-31T00:37:50;99540.66;;;1.45;69.76
67842;BME280;54642;59.126;37.876;2023-03-31T00:40:18;99553.75;;;1.59;69.86
67842;BME280;54642;59.126;37.876;2023-03-31T00:42:45;99539.22;;;1.57;69.81
67842;BME280;54642;59.126;37.876;2023-03-31T00:47:41;99476.38;;;1.25;69.07
67842;BME280;54642;59.126;37.876;2023-03-31T00:50:29;99533.81;;;1.44;68.84
67842;BME280;54642;59.126;37.876;2023-03-31T00:53:05;99477.47;;;0.99;68.70
67842;BME280;54642;59.126;37.876;2023-03-31T00:55:39;99569.25;;;1.32;68.52
67842;BME280;54642;59.126;37.876;2023-03-31T00:58:07;99558.13;;;1.28;68.71
67842;BME280;54642;59.126;37.876;2023-03-31T01:00:40;99552.72;;;1.16;68.92
67842;BME280;54642;59.126;37.876;2023-03-31T01:03:07;99508.03;;;0.97;68.71
67842;BME280;54642;59.126;37.876;2023-03-31T01:05:35;99554.78;;;1.31;68.47
67842;BME280;54642;59.126;37.876;2023-03-31T01:08:05;99554.59;;;1.23;68.60
67842;BME280;54642;59.126;37.876;2023-03-31T01:10:38;99565.69;;;1.24;68.18
67842;BME280;54642;59.126;37.876;2023-03-31T01:13:10;99541.34;;;1.03;68.29
67842;BME280;54642;59.126;37.876;2023-03-31T01:15:38;99562.06;;;1.16;68.12
67842;BME280;54642;59.126;37.876;2023-03-31T01:18:05;99560.38;;;1.16;68.31
67842;BME280;54642;59.126;37.876;2023-03-31T01:24:05;99551.94;;;1.19;68.56
67842;BME280;54642;59.126;37.876;2023-03-31T01:29:54;99561.81;;;1.40;68.55
67842;BME280;54642;59.126;37.876;2023-03-31T01:46:50;99561.22;;;1.51;68.54
67842;BME280;54642;59.126;37.876;2023-03-31T01:54:57;99541.88;;;1.61;69.12
67842;BME280;54642;59.126;37.876;2023-03-31T01:57:33;99557.50;;;1.75;69.20
67842;BME280;54642;59.126;37.876;2023-03-31T02:00:13;99565.13;;;1.72;68.80
67842;BME280;54642;59.126;37.876;2023-03-31T02:02:51;99556.19;;;1.55;68.88
67842;BME280;54642;59.126;37.876;2023-03-31T02:05:23;99555.44;;;1.59;69.26
67842;BME280;54642;59.126;37.876;2023-03-31T02:07:57;99543.50;;;1.58;69.04
67842;BME280;54642;59.126;37.876;2023-03-31T02:10:26;99497.75;;;1.30;69.05
67842;BME280;54642;59.126;37.876;2023-03-31T02:12:59;99555.22;;;1.49;69.06
67842;BME280;54642;59.126;37.876;2023-03-31T02:15:29;99537.66;;;1.25;69.20
67842;BME280;54642;59.126;37.876;2023-03-31T02:17:59;99552.78;;;1.19;69.29
67842;BME280;54642;59.126;37.876;2023-03-31T02:20:30;99538.78;;;1.03;69.39
67842;BME280;54642;59.126;37.876;2023-03-31T02:22:58;99509.28;;;0.80;69.25
67842;BME280;54642;59.126;37.876;2023-03-31T02:25:34;99558.97;;;0.94;69.42
67842;BME280;54642;59.126;37.876;2023-03-31T02:28:07;99560.56;;;0.90;69.61
67842;BME280;54642;59.126;37.876;2023-03-31T02:30:45;99499.56;;;0.65;69.17
67842;BME280;54642;59.126;37.876;2023-03-31T02:33:13;99528.44;;;0.97;69.26
67842;BME280;54642;59.126;37.876;2023-03-31T02:35:41;99495.69;;;0.79;68.85
67842;BME280;54642;59.126;37.876;2023-03-31T02:38:07;99495.00;;;0.53;69.14
67842;BME280;54642;59.126;37.876;2023-03-31T02:40:34;99480.84;;;0.31;69.47
67842;BME280;54642;59.126;37.876;2023-03-31T02:43:00;99546.97;;;0.58;69.64
67842;BME280;54642;59.126;37.876;2023-03-31T02:45:44;99521.59;;;0.31;69.88
67842;BME280;54642;59.126;37.876;2023-03-31T02:48:16;99510.38;;;0.24;70.06
67842;BME280;54642;59.126;37.876;2023-03-31T03:02:17;99527.75;;;0.09;70.20
67842;BME280;54642;59.126;37.876;2023-03-31T03:08:28;99511.22;;;-0.06;70.18
67842;BME280;54642;59.126;37.876;2023-03-31T03:14:16;99498.97;;;-0.19;70.12
67842;BME280;54642;59.126;37.876;2023-03-31T03:17:08;99501.38;;;-0.24;69.82
67842;BME280;54642;59.126;37.876;2023-03-31T03:19:31;99512.69;;;-0.14;70.28
67842;BME280;54642;59.126;37.876;2023-03-31T03:21:57;99507.41;;;-0.20;70.25
67842;BME280;54642;59.126;37.876;2023-03-31T03:24:23;99471.72;;;-0.50;70.17
67842;BME280;54642;59.126;37.876;2023-03-31T03:26:54;99487.16;;;-0.46;70.38
67842;BME280;54642;59.126;37.876;2023-03-31T03:29:20;99513.72;;;-0.37;70.20
67842;BME280;54642;59.126;37.876;2023-03-31T03:31:46;99517.06;;;-0.39;70.36
67842;BME280;54642;59.126;37.876;2023-03-31T03:34:12;99522.78;;;-0.46;70.26
67842;BME280;54642;59.126;37.876;2023-03-31T03:36:38;99522.84;;;-0.44;70.23
67842;BME280;54642;59.126;37.876;2023-03-31T03:39:05;99451.69;;;-0.96;70.15
67842;BME280;54642;59.126;37.876;2023-03-31T03:41:32;99531.03;;;-0.53;70.16
67842;BME280;54642;59.126;37.876;2023-03-31T03:44:01;99534.50;;;-0.51;70.34
67842;BME280;54642;59.126;37.876;2023-03-31T03:46:26;99510.16;;;-0.70;70.29
67842;BME280;54642;59.126;37.876;2023-03-31T03:48:52;99533.69;;;-0.50;70.49
67842;BME280;54642;59.126;37.876;2023-03-31T03:51:18;99507.75;;;-0.65;70.36
67842;BME280;54642;59.126;37.876;2023-03-31T03:53:44;99531.91;;;-0.52;70.12
67842;BME280;54642;59.126;37.876;2023-03-31T03:56:10;99506.56;;;-0.77;70.18
67842;BME280;54642;59.126;37.876;2023-03-31T03:58:36;99530.94;;;-0.56;70.20
67842;BME280;54642;59.126;37.876;2023-03-31T04:01:02;99488.47;;;-0.86;70.22
67842;BME280;54642;59.126;37.876;2023-03-31T04:03:29;99518.22;;;-0.56;70.28
67842;BME280;54642;59.126;37.876;2023-03-31T04:05:55;99528.56;;;-0.51;70.13
67842;BME280;54642;59.126;37.876;2023-03-31T04:08:21;99536.13;;;-0.53;70.03
67842;BME280;54642;59.126;37.876;2023-03-31T04:10:48;99529.19;;;-0.59;69.94
67842;BME280;54642;59.126;37.876;2023-03-31T04:13:15;99527.31;;;-0.64;70.00
67842;BME280;54642;59.126;37.876;2023-03-31T04:15:42;99516.50;;;-0.57;70.19
67842;BME280;54642;59.126;37.876;2023-03-31T04:18:08;99427.72;;;-1.04;69.80
67842;BME280;54642;59.126;37.876;2023-03-31T04:20:51;99519.13;;;-0.54;70.07
67842;BME280;54642;59.126;37.876;2023-03-31T04:23:33;99521.88;;;-0.48;69.91
67842;BME280;54642;59.126;37.876;2023-03-31T04:25:59;99535.63;;;-0.43;69.84
67842;BME280;54642;59.126;37.876;2023-03-31T04:28:25;99474.84;;;-0.61;69.76
67842;BME280;54642;59.126;37.876;2023-03-31T04:30:54;99521.66;;;-0.27;69.76
67842;BME280;54642;59.126;37.876;2023-03-31T04:33:23;99518.47;;;-0.20;69.82
67842;BME280;54642;59.126;37.876;2023-03-31T04:35:49;99511.56;;;-0.24;69.45
67842;BME280;54642;59.126;37.876;2023-03-31T04:38:23;99499.41;;;-0.32;69.48
67842;BME280;54642;59.126;37.876;2023-03-31T04:40:53;99518.16;;;-0.30;69.40
67842;BME280;54642;59.126;37.876;2023-03-31T04:43:20;99464.13;;;-0.49;69.43
67842;BME280;54642;59.126;37.876;2023-03-31T04:45:46;99493.59;;;-0.28;69.41
67842;BME280;54642;59.126;37.876;2023-03-31T04:48:12;99506.56;;;-0.21;69.22
67842;BME280;54642;59.126;37.876;2023-03-31T04:50:38;99503.31;;;-0.15;69.14
67842;BME280;54642;59.126;37.876;2023-03-31T04:53:04;99512.97;;;-0.05;69.34
67842;BME280;54642;59.126;37.876;2023-03-31T04:55:30;99509.69;;;-0.01;69.24
67842;BME280;54642;59.126;37.876;2023-03-31T04:57:57;99445.13;;;-0.31;69.15
67842;BME280;54642;59.126;37.876;2023-03-31T05:00:23;99496.94;;;-0.01;68.71
67842;BME280;54642;59.126;37.876;2023-03-31T05:02:49;99509.34;;;0.17;68.75
67842;BME280;54642;59.126;37.876;2023-03-31T05:05:16;99516.41;;;0.28;68.66
67842;BME280;54642;59.126;37.876;2023-03-31T05:07:42;99511.66;;;0.40;68.70
67842;BME280;54642;59.126;37.876;2023-03-31T05:10:09;99512.59;;;0.44;68.27
67842;BME280;54642;59.126;37.876;2023-03-31T05:12:35;99499.56;;;0.33;68.10
67842;BME280;54642;59.126;37.876;2023-03-31T05:15:02;99509.59;;;0.27;68.20
67842;BME280;54642;59.126;37.876;2023-03-31T05:17:32;99530.09;;;0.31;67.89
67842;BME280;54642;59.126;37.876;2023-03-31T05:19:59;99469.22;;;0.10;68.06
67842;BME280;54642;59.126;37.876;2023-03-31T05:22:26;99520.91;;;0.36;67.86
67842;BME280;54642;59.126;37.876;2023-03-31T05:24:52;99509.16;;;0.42;68.09
67842;BME280;54642;59.126;37.876;2023-03-31T05:27:17;99515.53;;;0.57;68.07
67842;BME280;54642;59.126;37.876;2023-03-31T05:29:46;99445.75;;;0.22;68.06
67842;BME280;54642;59.126;37.876;2023-03-31T05:32:11;99520.00;;;0.66;68.00
67842;BME280;54642;59.126;37.876;2023-03-31T05:34:37;99523.38;;;0.65;68.07
67842;BME280;54642;59.126;37.876;2023-03-31T05:37:03;99537.25;;;0.76;67.91
67842;BME280;54642;59.126;37.876;2023-03-31T05:39:29;99522.44;;;0.95;67.75
67842;BME280;54642;59.126;37.876;2023-03-31T05:42:00;99513.19;;;1.00;67.67
67842;BME280;54642;59.126;37.876;2023-03-31T05:44:26;99512.13;;;1.25;67.45
67842;BME280;54642;59.126;37.876;2023-03-31T05:46:52;99526.16;;;1.44;67.38
67842;BME280;54642;59.126;37.876;2023-03-31T05:49:18;99510.97;;;1.49;67.41
67842;BME280;54642;59.126;37.876;2023-03-31T05:51:44;99512.84;;;1.58;67.04
67842;BME280;54642;59.126;37.876;2023-03-31T05:54:11;99390.50;;;0.91;66.90
67842;BME280;54642;59.126;37.876;2023-03-31T05:56:37;99508.66;;;1.60;66.78
67842;BME280;54642;59.126;37.876;2023-03-31T05:59:03;99503.84;;;1.75;67.09
67842;BME280;54642;59.126;37.876;2023-03-31T06:01:29;99496.72;;;2.00;66.49
67842;BME280;54642;59.126;37.876;2023-03-31T06:03:55;99503.13;;;2.23;66.09
67842;BME280;54642;59.126;37.876;2023-03-31T06:06:21;99441.53;;;2.09;65.58
67842;BME280;54642;59.126;37.876;2023-03-31T06:08:47;99502.97;;;2.58;64.78
67842;BME280;54642;59.126;37.876;2023-03-31T06:11:19;99491.16;;;2.65;64.15
67842;BME280;54642;59.126;37.876;2023-03-31T06:13:45;99483.19;;;2.50;64.27
67842;BME280;54642;59.126;37.876;2023-03-31T06:16:13;99508.03;;;2.57;64.55
67842;BME280;54642;59.126;37.876;2023-03-31T06:18:40;99493.75;;;2.66;64.44
67842;BME280;54642;59.126;37.876;2023-03-31T06:21:07;99488.91;;;2.83;63.86
67842;BME280;54642;59.126;37.876;2023-03-31T06:23:33;99477.03;;;2.87;63.70
67842;BME280;54642;59.126;37.876;2023-03-31T06:26:06;99470.47;;;3.04;63.38
67842;BME280;54642;59.126;37.876;2023-03-31T06:28:34;99491.31;;;3.26;62.87
67842;BME280;54642;59.126;37.876;2023-03-31T06:31:12;99482.03;;;3.36;62.60
67842;BME280;54642;59.126;37.876;2023-03-31T06:33:39;99447.03;;;3.35;62.18
67842;BME280;54642;59.126;37.876;2023-03-31T06:36:07;99485.97;;;3.70;62.10
67842;BME280;54642;59.126;37.876;2023-03-31T06:38:34;99478.00;;;3.52;62.23
67842;BME280;54642;59.126;37.876;2023-03-31T06:41:01;99478.91;;;3.55;62.16
67842;BME280;54642;59.126;37.876;2023-03-31T06:43:27;99472.31;;;3.73;62.10
67842;BME280;54642;59.126;37.876;2023-03-31T06:45:54;99463.81;;;3.77;62.16
67842;BME280;54642;59.126;37.876;2023-03-31T06:48:22;99460.06;;;3.52;62.07
67842;BME280;54642;59.126;37.876;2023-03-31T06:50:48;99469.66;;;3.65;62.04
67842;BME280;54642;59.126;37.876;2023-03-31T06:53:14;99455.09;;;3.62;62.28
67842;BME280;54642;59.126;37.876;2023-03-31T06:55:40;99400.22;;;3.43;62.48
67842;BME280;54642;59.126;37.876;2023-03-31T06:58:06;99446.59;;;3.65;62.33
67842;BME280;54642;59.126;37.876;2023-03-31T07:00:32;99429.19;;;3.41;62.29
67842;BME280;54642;59.126;37.876;2023-03-31T07:02:58;99463.69;;;3.66;62.47
67842;BME280;54642;59.126;37.876;2023-03-31T07:05:25;99473.09;;;3.67;62.33
67842;BME280;54642;59.126;37.876;2023-03-31T07:07:54;99406.38;;;3.61;62.22
67842;BME280;54642;59.126;37.876;2023-03-31T07:10:21;99449.94;;;4.31;61.41
67842;BME280;54642;59.126;37.876;2023-03-31T07:12:48;99464.72;;;4.55;61.23
67842;BME280;54642;59.126;37.876;2023-03-31T07:15:14;99460.44;;;4.57;61.23
67842;BME280;54642;59.126;37.876;2023-03-31T07:17:40;99444.16;;;4.51;60.64
67842;BME280;54642;59.126;37.876;2023-03-31T07:20:12;99451.25;;;4.80;60.34
67842;BME280;54642;59.126;37.876;2023-03-31T07:22:40;99445.31;;;4.85;59.98
67842;BME280;54642;59.126;37.876;2023-03-31T07:25:08;99435.09;;;4.91;59.50
67842;BME280;54642;59.126;37.876;2023-03-31T07:27:35;99445.31;;;4.85;59.34
67842;BME280;54642;59.126;37.876;2023-03-31T07:30:03;99436.91;;;5.03;59.33
67842;BME280;54642;59.126;37.876;2023-03-31T07:32:29;99441.16;;;5.04;58.71
67842;BME280;54642;59.126;37.876;2023-03-31T07:34:56;99387.97;;;4.88;59.27
67842;BME280;54642;59.126;37.876;2023-03-31T07:37:21;99446.41;;;5.13;59.18
67842;BME280;54642;59.126;37.876;2023-03-31T07:39:47;99389.81;;;5.06;59.32
67842;BME280;54642;59.126;37.876;2023-03-31T07:42:13;99441.31;;;5.21;58.66
67842;BME280;54642;59.126;37.876;2023-03-31T07:44:39;99425.91;;;5.24;58.81
67842;BME280;54642;59.126;37.876;2023-03-31T07:47:05;99431.72;;;4.99;58.61
67842;BME280;54642;59.126;37.876;2023-03-31T07:49:32;99347.53;;;4.56;58.48
67842;BME280;54642;59.126;37.876;2023-03-31T07:51:59;99437.75;;;5.05;57.71
67842;BME280;54642;59.126;37.876;2023-03-31T07:54:25;99441.34;;;5.29;58.06
67842;BME280;54642;59.126;37.876;2023-03-31T07:56:51;99424.28;;;5.39;57.70
67842;BME280;54642;59.126;37.876;2023-03-31T07:59:18;99388.16;;;5.12;57.34
67842;BME280;54642;59.126;37.876;2023-03-31T08:01:44;99388.94;;;4.97;57.60
67842;BME280;54642;59.126;37.876;2023-03-31T08:04:11;99423.34;;;5.23;57.58
67842;BME280;54642;59.126;37.876;2023-03-31T08:06:37;99420.91;;;5.44;57.40
67842;BME280;54642;59.126;37.876;2023-03-31T08:09:04;99415.00;;;5.68;57.17
67842;BME280;54642;59.126;37.876;2023-03-31T08:11:33;99408.25;;;5.92;56.94
67842;BME280;54642;59.126;37.876;2023-03-31T08:13:59;99411.78;;;6.06;56.94
67842;BME280;54642;59.126;37.876;2023-03-31T08:16:25;99410.91;;;6.07;56.32
67842;BME280;54642;59.126;37.876;2023-03-31T08:18:51;99414.34;;;6.13;56.05
67842;BME280;54642;59.126;37.876;2023-03-31T08:21:17;99404.06;;;6.06;56.12
67842;BME280;54642;59.126;37.876;2023-03-31T08:23:43;99403.22;;;6.29;56.14
67842;BME280;54642;59.126;37.876;2023-03-31T08:26:14;99386.88;;;6.05;55.82
67842;BME280;54642;59.126;37.876;2023-03-31T08:28:43;99403.19;;;6.01;55.82
67842;BME280;54642;59.126;37.876;2023-03-31T08:31:09;99398.81;;;5.91;55.40
67842;BME280;54642;59.126;37.876;2023-03-31T08:33:35;99391.97;;;5.95;54.94
67842;BME280;54642;59.126;37.876;2023-03-31T08:36:07;99390.34;;;6.14;54.17
67842;BME280;54642;59.126;37.876;2023-03-31T08:38:35;99376.59;;;6.05;53.73
67842;BME280;54642;59.126;37.876;2023-03-31T08:44:28;99373.22;;;6.37;53.64
67842;BME280;54642;59.126;37.876;2023-03-31T08:46:56;99374.09;;;6.55;53.35
67842;BME280;54642;59.126;37.876;2023-03-31T08:49:25;99371.53;;;6.44;52.71
67842;BME280;54642;59.126;37.876;2023-03-31T08:52:01;99325.19;;;6.44;53.46
67842;BME280;54642;59.126;37.876;2023-03-31T08:54:32;99367.22;;;6.72;53.23
67842;BME280;54642;59.126;37.876;2023-03-31T08:56:59;99277.16;;;6.12;52.00
67842;BME280;54642;59.126;37.876;2023-03-31T08:59:29;99363.78;;;6.70;52.43
67842;BME280;54642;59.126;37.876;2023-03-31T09:21:14;99313.94;;;6.99;50.70
67842;BME280;54642;59.126;37.876;2023-03-31T09:23:50;99251.41;;;6.58;50.08
67842;BME280;54642;59.126;37.876;2023-03-31T09:26:37;99339.59;;;7.45;50.03
67842;BME280;54642;59.126;37.876;2023-03-31T09:29:09;99334.28;;;7.74;49.99
67842;BME280;54642;59.126;37.876;2023-03-31T09:31:41;99332.59;;;7.73;49.16
67842;BME280;54642;59.126;37.876;2023-03-31T09:34:19;99327.47;;;7.64;49.23
67842;BME280;54642;59.126;37.876;2023-03-31T09:36:52;99339.59;;;7.50;48.37
67842;BME280;54642;59.126;37.876;2023-03-31T09:39:19;99325.94;;;7.21;48.89
67842;BME280;54642;59.126;37.876;2023-03-31T09:41:48;99330.97;;;7.55;48.44
67842;BME280;54642;59.126;37.876;2023-03-31T09:44:36;99330.84;;;7.80;48.36
67842;BME280;54642;59.126;37.876;2023-03-31T09:47:06;99276.69;;;7.78;48.13
67842;BME280;54642;59.126;37.876;2023-03-31T09:49:36;99329.81;;;8.10;47.88
67842;BME280;54642;59.126;37.876;2023-03-31T09:52:19;99325.50;;;8.05;47.18
67842;BME280;54642;59.126;37.876;2023-03-31T09:54:52;99324.59;;;8.12;47.28
67842;BME280;54642;59.126;37.876;2023-03-31T09:59:50;99323.06;;;7.83;46.59
67842;BME280;54642;59.126;37.876;2023-03-31T10:04:48;99298.16;;;7.83;46.83
67842;BME280;54642;59.126;37.876;2023-03-31T10:07:20;99314.34;;;8.06;46.57
67842;BME280;54642;59.126;37.876;2023-03-31T10:09:47;99302.28;;;8.08;46.17
67842;BME280;54642;59.126;37.876;2023-03-31T10:12:15;99302.41;;;7.92;45.90
67842;BME280;54642;59.126;37.876;2023-03-31T10:14:50;99315.38;;;7.78;45.47
67842;BME280;54642;59.126;37.876;2023-03-31T10:17:18;99309.41;;;7.67;45.47
67842;BME280;54642;59.126;37.876;2023-03-31T10:19:57;99271.78;;;7.29;44.82
67842;BME280;54642;59.126;37.876;2023-03-31T10:22:29;99317.22;;;7.55;43.39
67842;BME280;54642;59.126;37.876;2023-03-31T10:25:09;99320.59;;;7.68;44.07
67842;BME280;54642;59.126;37.876;2023-03-31T10:27:38;99301.66;;;7.67;43.72
67842;BME280;54642;59.126;37.876;2023-03-31T10:30:09;99313.63;;;7.82;43.04
67842;BME280;54642;59.126;37.876;2023-03-31T10:32:43;99308.53;;;7.73;41.61
67842;BME280;54642;59.126;37.876;2023-03-31T10:38:13;99312.00;;;7.62;42.46
67842;BME280;54642;59.126;37.876;2023-03-31T10:40:49;99293.06;;;7.65;43.15
67842;BME280;54642;59.126;37.876;2023-03-31T10:43:19;99300.88;;;7.56;42.93
67842;BME280;54642;59.126;37.876;2023-03-31T10:45:51;99306.84;;;7.64;43.61
67842;BME280;54642;59.126;37.876;2023-03-31T10:48:34;99305.97;;;7.63;44.17
67842;BME280;54642;59.126;37.876;2023-03-31T10:53:51;99297.50;;;7.46;43.95
67842;BME280;54642;59.126;37.876;2023-03-31T10:59:30;99300.00;;;7.57;44.10
67842;BME280;54642;59.126;37.876;2023-03-31T11:02:15;99291.38;;;7.62;44.02
67842;BME280;54642;59.126;37.876;2023-03-31T11:13:12;99244.00;;;7.76;44.50
67842;BME280;54642;59.126;37.876;2023-03-31T11:24:07;99269.72;;;7.88;44.76
67842;BME280;54642;59.126;37.876;2023-03-31T11:29:29;99245.66;;;7.91;44.62
67842;BME280;54642;59.126;37.876;2023-03-31T11:32:23;99251.56;;;8.05;43.83
67842;BME280;54642;59.126;37.876;2023-03-31T11:34:56;99263.41;;;8.29;44.61
67842;BME280;54642;59.126;37.876;2023-03-31T11:37:32;99265.06;;;8.38;44.52
67842;BME280;54642;59.126;37.876;2023-03-31T11:42:54;99231.19;;;8.72;44.03
67842;BME280;54642;59.126;37.876;2023-03-31T11:45:37;99196.97;;;8.51;43.53
67842;BME280;54642;59.126;37.876;2023-03-31T11:48:13;99232.03;;;8.71;43.46
67842;BME280;54642;59.126;37.876;2023-03-31T11:50:43;99222.59;;;8.70;43.32
67842;BME280;54642;59.126;37.876;2023-03-31T11:53:16;99212.34;;;8.62;43.56
67842;BME280;54642;59.126;37.876;2023-03-31T11:55:47;99223.63;;;8.55;43.50
67842;BME280;54642;59.126;37.876;2023-03-31T11:58:21;99230.47;;;8.56;43.40
67842;BME280;54642;59.126;37.876;2023-03-31T12:04:28;99186.44;;;8.68;43.87
67842;BME280;54642;59.126;37.876;2023-03-31T12:06:53;99218.81;;;9.00;43.31
67842;BME280;54642;59.126;37.876;2023-03-31T12:17:22;99198.44;;;8.74;43.10
67842;BME280;54642;59.126;37.876;2023-03-31T12:19:52;99215.53;;;8.87;43.77
67842;BME280;54642;59.126;37.876;2023-03-31T12:22:30;99205.88;;;9.02;43.48
67842;BME280;54642;59.126;37.876;2023-03-31T12:24:59;99202.13;;;9.23;43.66
67842;BME280;54642;59.126;37.876;2023-03-31T12:27:35;99194.25;;;9.33;42.83
67842;BME280;54642;59.126;37.876;2023-03-31T12:32:35;99134.84;;;9.30;42.75
67842;BME280;54642;59.126;37.876;2023-03-31T12:35:06;99179.72;;;9.84;42.58
67842;BME280;54642;59.126;37.876;2023-03-31T12:38:04;99158.91;;;9.90;42.23
67842;BME280;54642;59.126;37.876;2023-03-31T12:48:42;99155.28;;;10.02;41.87
67842;BME280;54642;59.126;37.876;2023-03-31T12:54:18;99154.72;;;9.81;42.13
67842;BME280;54642;59.126;37.876;2023-03-31T13:04:40;99128.06;;;9.76;42.00
67842;BME280;54642;59.126;37.876;2023-03-31T13:07:39;99127.91;;;9.85;42.27
67842;BME280;54642;59.126;37.876;2023-03-31T13:13:13;99130.22;;;10.04;41.65
67842;BME280;54642;59.126;37.876;2023-03-31T13:15:38;99029.25;;;9.57;41.63
67842;BME280;54642;59.126;37.876;2023-03-31T13:18:06;99109.59;;;9.98;41.26
67842;BME280;54642;59.126;37.876;2023-03-31T13:20:38;99111.47;;;9.91;41.26
67842;BME280;54642;59.126;37.876;2023-03-31T13:23:13;99114.88;;;9.91;41.24
67842;BME280;54642;59.126;37.876;2023-03-31T13:31:21;99106.09;;;9.49;41.40
67842;BME280;54642;59.126;37.876;2023-03-31T13:41:59;99091.22;;;9.62;41.48
67842;BME280;54642;59.126;37.876;2023-03-31T13:44:51;99088.75;;;9.56;41.50
67842;BME280;54642;59.126;37.876;2023-03-31T13:53:36;99090.06;;;9.27;41.96
67842;BME280;54642;59.126;37.876;2023-03-31T13:59:18;99023.84;;;8.62;41.67
67842;BME280;54642;59.126;37.876;2023-03-31T14:07:19;99076.03;;;8.84;41.38
67842;BME280;54642;59.126;37.876;2023-03-31T14:09:46;99071.69;;;8.86;41.50
67842;BME280;54642;59.126;37.876;2023-03-31T14:12:41;99071.47;;;9.03;41.61
67842;BME280;54642;59.126;37.876;2023-03-31T14:15:18;99064.63;;;8.99;41.11
67842;BME280;54642;59.126;37.876;2023-03-31T14:17:44;99071.50;;;9.00;41.20
67842;BME280;54642;59.126;37.876;2023-03-31T14:25:42;99063.56;;;9.14;40.84
67842;BME280;54642;59.126;37.876;2023-03-31T14:31:20;99059.38;;;9.05;41.03
67842;BME280;54642;59.126;37.876;2023-03-31T14:37:03;99009.19;;;9.70;41.99
67842;BME280;54642;59.126;37.876;2023-03-31T14:39:45;99048.13;;;10.54;41.16
67842;BME280;54642;59.126;37.876;2023-03-31T14:42:21;98991.88;;;10.17;40.41
67842;BME280;54642;59.126;37.876;2023-03-31T14:44:53;99035.50;;;10.39;41.56
67842;BME280;54642;59.126;37.876;2023-03-31T14:47:22;98944.47;;;9.73;41.10
67842;BME280;54642;59.126;37.876;2023-03-31T14:50:05;99036.06;;;10.09;41.81
67842;BME280;54642;59.126;37.876;2023-03-31T14:52:34;99024.72;;;10.15;41.41
67842;BME280;54642;59.126;37.876;2023-03-31T14:55:00;99037.78;;;10.09;41.64
67842;BME280;54642;59.126;37.876;2023-03-31T14:57:35;99022.69;;;10.29;41.70
67842;BME280;54642;59.126;37.876;2023-03-31T15:00:05;99037.22;;;10.40;41.75
67842;BME280;54642;59.126;37.876;2023-03-31T15:02:42;99016.19;;;10.10;42.21
67842;BME280;54642;59.126;37.876;2023-03-31T15:05:35;99026.78;;;9.98;41.59
67842;BME280;54642;59.126;37.876;2023-03-31T15:08:18;99033.16;;;9.80;42.62
67842;BME280;54642;59.126;37.876;2023-03-31T15:10:53;99037.19;;;9.48;42.37
67842;BME280;54642;59.126;37.876;2023-03-31T15:13:46;99032.31;;;9.26;42.02
67842;BME280;54642;59.126;37.876;2023-03-31T15:16:39;99030.03;;;9.08;42.43
67842;BME280;54642;59.126;37.876;2023-03-31T15:19:22;99025.16;;;8.91;42.46
67842;BME280;54642;59.126;37.876;2023-03-31T15:21:54;98993.69;;;8.63;42.41
67842;BME280;54642;59.126;37.876;2023-03-31T15:24:21;99022.88;;;8.69;42.72
67842;BME280;54642;59.126;37.876;2023-03-31T15:27:02;99037.47;;;8.70;42.60
67842;BME280;54642;59.126;37.876;2023-03-31T15:29:41;99030.66;;;8.65;42.54
67842;BME280;54642;59.126;37.876;2023-03-31T15:32:15;99013.66;;;8.50;42.59
67842;BME280;54642;59.126;37.876;2023-03-31T15:34:42;99034.25;;;8.54;43.39
67842;BME280;54642;59.126;37.876;2023-03-31T15:37:11;99028.38;;;9.05;43.52
67842;BME280;54642;59.126;37.876;2023-03-31T15:39:37;99015.63;;;9.46;43.70
67842;BME280;54642;59.126;37.876;2023-03-31T15:42:06;99022.72;;;9.84;43.50
67842;BME280;54642;59.126;37.876;2023-03-31T15:47:35;99004.31;;;10.43;42.29
67842;BME280;54642;59.126;37.876;2023-03-31T15:50:11;98952.63;;;10.37;41.88
67842;BME280;54642;59.126;37.876;2023-03-31T15:52:49;98996.25;;;10.57;42.41
67842;BME280;54642;59.126;37.876;2023-03-31T15:55:26;99002.75;;;10.77;40.72
67842;BME280;54642;59.126;37.876;2023-03-31T15:57:55;99008.75;;;10.79;40.76
67842;BME280;54642;59.126;37.876;2023-03-31T16:02:57;98999.25;;;10.78;41.75
67842;BME280;54642;59.126;37.876;2023-03-31T16:05:45;99013.59;;;10.93;41.42
67842;BME280;54642;59.126;37.876;2023-03-31T16:08:38;99010.41;;;10.81;41.38
67842;BME280;54642;59.126;37.876;2023-03-31T16:11:17;99020.56;;;10.89;40.60
67842;BME280;54642;59.126;37.876;2023-03-31T16:13:48;99023.94;;;10.55;40.66
67842;BME280;54642;59.126;37.876;2023-03-31T16:16:17;99000.34;;;10.25;41.05
67842;BME280;54642;59.126;37.876;2023-03-31T16:18:49;99032.41;;;10.20;40.85
67842;BME280;54642;59.126;37.876;2023-03-31T16:21:24;99032.56;;;9.64;40.99
67842;BME280;54642;59.126;37.876;2023-03-31T16:23:53;99024.81;;;9.12;41.45